createdAt,value
2018-09-06T00:01:58.159Z,23.23
2018-09-06T00:04:31.761Z,23.30
2018-09-06T00:07:05.617Z,21.50
2018-09-06T00:09:39.412Z,22.95
2018-09-06T00:18:12.091Z,25.02
2018-09-06T00:26:50.140Z,23.10
2018-09-06T00:29:24.048Z,22.45
2018-09-06T00:31:57.897Z,21.85
2018-09-06T00:34:32.454Z,23.90
2018-09-06T00:37:06.252Z,24.50
2018-09-06T00:39:40.034Z,24.02
2018-09-06T00:45:12.937Z,23.42
2018-09-06T00:47:46.713Z,23.12
2018-09-06T00:50:20.524Z,25.42
2018-09-06T00:52:55.057Z,23.05
2018-09-06T00:55:29.451Z,21.87
2018-09-06T00:58:03.260Z,23.92
2018-09-06T01:00:36.944Z,22.33
2018-09-06T01:03:10.743Z,23.80
2018-09-06T01:05:54.243Z,23.65
2018-09-06T01:08:28.147Z,24.25
2018-09-06T01:11:01.919Z,23.30
2018-09-06T01:16:35.197Z,24.10
2018-09-06T01:19:09.079Z,22.23
2018-09-06T01:21:43.636Z,22.95
2018-09-06T01:27:17.269Z,22.35
2018-09-06T01:29:51.127Z,23.23
2018-09-06T01:32:25.049Z,22.95
2018-09-06T01:34:58.951Z,24.65
2018-09-06T01:37:32.716Z,24.15
2018-09-06T01:40:06.543Z,24.05
2018-09-06T01:42:41.053Z,22.92
2018-09-06T01:45:14.816Z,26.45
2018-09-06T01:47:48.692Z,25.77
2018-09-06T01:53:28.701Z,24.00
2018-09-06T01:56:02.476Z,27.17
2018-09-06T02:04:35.163Z,24.98
2018-09-06T02:10:09.507Z,27.65
2018-09-06T02:12:43.287Z,30.20
2018-09-06T02:15:20.475Z,30.83
2018-09-06T02:17:58.395Z,31.10
2018-09-06T02:20:32.152Z,27.67
2018-09-06T02:26:05.091Z,27.70
2018-09-06T02:31:38.412Z,25.58
2018-09-06T02:34:12.127Z,24.90
2018-09-06T02:36:46.752Z,25.58
2018-09-06T02:39:20.543Z,25.85
2018-09-06T02:44:54.252Z,26.60
2018-09-06T02:53:26.720Z,28.08
2018-09-06T02:56:00.474Z,24.92
2018-09-06T02:58:34.274Z,25.25
2018-09-06T03:07:10.287Z,26.05
2018-09-06T03:09:44.021Z,26.23
2018-09-06T03:15:21.692Z,27.50
2018-09-06T03:20:55.083Z,30.00
2018-09-06T03:23:28.956Z,27.33
2018-09-06T03:26:02.682Z,30.88
2018-09-06T03:28:36.364Z,29.52
2018-09-06T03:34:09.488Z,28.50
2018-09-06T03:39:42.808Z,29.30
2018-09-06T03:45:17.243Z,30.37
2018-09-06T03:53:49.418Z,35.90
2018-09-06T03:56:23.267Z,32.80
2018-09-06T04:04:56.506Z,29.95
2018-09-06T04:10:29.229Z,28.05
2018-09-06T04:16:02.893Z,30.35
2018-09-06T04:18:36.828Z,29.73
2018-09-06T04:24:11.170Z,33.60
2018-09-06T04:26:53.288Z,30.10
2018-09-06T04:32:26.246Z,30.48
2018-09-06T04:37:59.501Z,31.80
2018-09-06T04:40:33.289Z,29.50
2018-09-06T04:43:07.041Z,30.92
2018-09-06T04:45:40.821Z,31.25
2018-09-06T04:48:14.627Z,31.42
2018-09-06T04:50:59.040Z,30.17
2018-09-06T04:53:32.969Z,33.35
2018-09-06T04:56:06.683Z,35.15
2018-09-06T04:58:40.447Z,35.00
2018-09-06T05:01:14.981Z,30.77
2018-09-06T05:03:48.772Z,32.67
2018-09-06T05:06:22.775Z,34.95
2018-09-06T05:08:56.560Z,29.33
2018-09-06T05:11:31.678Z,35.20
2018-09-06T05:14:05.456Z,34.20
2018-09-06T05:16:39.267Z,33.95
2018-09-06T05:19:17.210Z,32.70
2018-09-06T05:21:59.588Z,29.98
2018-09-06T05:33:24.467Z,32.00
2018-09-06T05:35:58.195Z,31.27
2018-09-06T05:41:31.201Z,31.58
2018-09-06T05:44:05.085Z,31.62
2018-09-06T05:46:39.636Z,32.10
2018-09-06T05:49:13.309Z,35.72
2018-09-06T05:57:46.185Z,35.03
2018-09-06T06:00:20.822Z,32.75
2018-09-06T06:02:54.461Z,32.20
2018-09-06T06:05:28.211Z,34.22
2018-09-06T06:14:00.356Z,35.90
2018-09-06T06:16:34.191Z,39.90
2018-09-06T06:22:07.524Z,39.03
2018-09-06T06:24:41.252Z,41.37
2018-09-06T06:27:15.875Z,42.20
2018-09-06T06:35:49.082Z,37.78
2018-09-06T06:38:22.783Z,37.97
2018-09-06T06:46:55.124Z,39.47
2018-09-06T06:49:29.564Z,35.60
2018-09-06T06:52:03.291Z,34.38
2018-09-06T06:54:43.223Z,37.22
2018-09-06T07:03:01.850Z,33.75
2018-09-06T07:05:35.532Z,41.42
2018-09-06T07:08:09.339Z,37.38
2018-09-06T07:13:42.601Z,34.13
2018-09-06T07:16:16.410Z,36.45
2018-09-06T07:18:50.232Z,35.85
2018-09-06T07:21:24.948Z,33.42
2018-09-06T07:23:58.809Z,35.10
2018-09-06T07:26:32.550Z,37.25
2018-09-06T07:29:06.477Z,34.80
2018-09-06T07:31:40.390Z,34.08
2018-09-06T07:34:14.255Z,33.97
2018-09-06T07:36:48.036Z,35.47
2018-09-06T07:39:21.811Z,34.83
2018-09-06T07:44:54.782Z,32.72
2018-09-06T07:47:28.612Z,33.35
2018-09-06T07:53:03.321Z,43.97
2018-09-06T07:55:43.793Z,34.47
2018-09-06T08:01:00.270Z,32.83
2018-09-06T08:03:34.086Z,30.05
2018-09-06T08:06:09.834Z,33.07
2018-09-06T08:08:43.730Z,29.83
2018-09-06T08:14:17.383Z,27.47
2018-09-06T08:16:51.231Z,27.30
2018-09-06T08:19:25.887Z,27.80
2018-09-06T08:21:59.595Z,23.57
2018-09-06T08:24:33.420Z,31.33
2018-09-06T08:27:07.223Z,27.13
2018-09-06T08:35:40.691Z,25.43
2018-09-06T08:38:14.456Z,23.37
2018-09-06T08:40:52.300Z,20.57
2018-09-06T08:43:26.844Z,19.90
2018-09-06T08:46:01.264Z,19.70
2018-09-06T08:48:35.068Z,19.93
2018-09-06T08:51:08.960Z,17.73
2018-09-06T08:53:43.400Z,16.67
2018-09-06T08:56:17.219Z,15.70
2018-09-06T09:01:51.530Z,17.80
2018-09-06T09:04:25.416Z,16.50
2018-09-06T09:06:59.990Z,16.70
2018-09-06T09:09:33.757Z,16.67
2018-09-06T09:12:07.356Z,15.70
2018-09-06T09:14:41.273Z,14.93
2018-09-06T09:17:22.959Z,24.57
2018-09-06T09:22:55.848Z,15.00
2018-09-06T09:25:30.408Z,15.07
2018-09-06T09:28:04.258Z,15.77
2018-09-06T09:30:38.064Z,13.60
2018-09-06T09:33:11.941Z,14.10
2018-09-06T09:35:46.632Z,19.40
2018-09-06T09:38:20.259Z,15.37
2018-09-06T09:43:52.953Z,13.40
2018-09-06T09:52:03.101Z,12.27
2018-09-06T09:57:36.427Z,11.73
2018-09-06T10:00:10.221Z,14.47
2018-09-06T10:02:44.032Z,13.07
2018-09-06T10:05:21.852Z,19.67
2018-09-06T10:07:55.734Z,11.23
2018-09-06T10:10:29.439Z,11.90
2018-09-06T10:13:08.752Z,10.50
2018-09-06T10:15:42.642Z,11.60
2018-09-06T10:18:16.566Z,12.90
2018-09-06T10:20:51.136Z,11.67
2018-09-06T10:23:25.023Z,13.47
2018-09-06T10:25:58.824Z,12.10
2018-09-06T10:34:38.149Z,12.10
2018-09-06T10:37:15.633Z,9.43
2018-09-06T10:42:56.188Z,10.37
2018-09-06T10:45:29.911Z,21.60
2018-09-06T10:48:06.521Z,11.40
2018-09-06T10:50:40.213Z,9.50
2018-09-06T10:53:13.879Z,10.70
2018-09-06T10:55:47.774Z,9.30
2018-09-06T10:58:21.628Z,9.20
2018-09-06T11:00:55.321Z,9.80
2018-09-06T11:03:29.072Z,9.67
2018-09-06T11:06:02.856Z,11.10
2018-09-06T11:08:36.697Z,10.60
2018-09-06T11:11:11.570Z,13.90
2018-09-06T11:13:46.122Z,14.63
2018-09-06T11:16:23.018Z,11.80
2018-09-06T11:18:59.583Z,14.43
2018-09-06T11:21:33.413Z,10.03
2018-09-06T11:24:07.148Z,21.27
2018-09-06T11:26:40.874Z,17.47
2018-09-06T11:29:18.890Z,19.13
2018-09-06T11:34:52.258Z,13.10
2018-09-06T11:37:25.991Z,8.93
2018-09-06T11:40:03.862Z,9.50
2018-09-06T11:42:37.650Z,8.23
2018-09-06T11:45:11.444Z,8.30
2018-09-06T11:47:46.132Z,10.10
2018-09-06T11:50:27.303Z,9.40
2018-09-06T11:56:01.394Z,9.80
2018-09-06T11:58:35.144Z,9.10
2018-09-06T12:04:08.880Z,11.07
2018-09-06T12:06:42.698Z,10.53
2018-09-06T12:09:16.695Z,12.47
2018-09-06T12:11:50.394Z,13.37
2018-09-06T12:14:24.188Z,9.87
2018-09-06T12:16:58.765Z,10.60
2018-09-06T12:19:32.676Z,11.00
2018-09-06T12:22:06.451Z,21.03
2018-09-06T12:24:40.259Z,20.43
2018-09-06T12:27:14.212Z,10.10
2018-09-06T12:29:47.958Z,10.97
2018-09-06T12:32:21.752Z,16.57
2018-09-06T12:34:55.560Z,10.50
2018-09-06T12:37:29.257Z,11.90
2018-09-06T12:40:03.905Z,10.87
2018-09-06T12:42:37.540Z,9.70
2018-09-06T12:45:11.407Z,9.10
2018-09-06T12:47:45.120Z,9.77
2018-09-06T12:50:21.856Z,12.40
2018-09-06T12:52:55.482Z,9.10
2018-09-06T12:55:29.244Z,9.93
2018-09-06T12:58:02.990Z,12.57
2018-09-06T13:00:36.919Z,10.90
2018-09-06T13:03:11.507Z,7.87
2018-09-06T13:05:45.289Z,7.27
2018-09-06T13:08:19.806Z,8.13
2018-09-06T13:10:53.612Z,7.87
2018-09-06T13:13:27.464Z,9.47
2018-09-06T13:16:01.248Z,9.00
2018-09-06T13:21:34.723Z,11.13
2018-09-06T13:24:09.224Z,8.97
2018-09-06T13:26:42.966Z,7.97
2018-09-06T13:29:16.701Z,8.00
2018-09-06T13:31:51.179Z,9.13
2018-09-06T13:34:24.880Z,7.50
2018-09-06T13:39:57.827Z,12.20
2018-09-06T13:45:41.160Z,9.47
2018-09-06T13:48:15.018Z,9.33
2018-09-06T13:50:48.881Z,12.33
2018-09-06T13:56:21.692Z,10.30
2018-09-06T14:01:56.090Z,10.87
2018-09-06T14:04:30.454Z,9.07
2018-09-06T14:07:05.195Z,15.40
2018-09-06T14:12:38.067Z,10.77
2018-09-06T14:15:11.989Z,11.00
2018-09-06T14:17:45.934Z,11.63
2018-09-06T14:20:19.719Z,11.00
2018-09-06T14:22:54.388Z,11.10
2018-09-06T14:25:28.115Z,11.30
2018-09-06T14:28:01.893Z,11.03
2018-09-06T14:30:35.763Z,10.90
2018-09-06T14:36:10.146Z,13.10
2018-09-06T14:44:43.604Z,11.63
2018-09-06T14:47:17.432Z,10.60
2018-09-06T14:55:41.228Z,12.03
2018-09-06T15:04:10.548Z,12.73
2018-09-06T15:06:44.449Z,13.10
2018-09-06T15:12:18.025Z,12.17
2018-09-06T15:17:51.432Z,12.93
2018-09-06T15:20:25.228Z,13.33
2018-09-06T15:22:58.981Z,13.40
2018-09-06T15:25:32.717Z,13.07
2018-09-06T15:28:07.385Z,15.20
2018-09-06T15:30:40.998Z,15.33
2018-09-06T15:33:14.832Z,16.77
2018-09-06T15:35:49.420Z,12.67
2018-09-06T15:38:23.310Z,23.20
2018-09-06T15:40:57.208Z,10.27
2018-09-06T15:43:31.024Z,10.57
2018-09-06T15:46:05.532Z,10.82
2018-09-06T15:48:39.304Z,12.43
2018-09-06T15:51:13.184Z,11.10
2018-09-06T15:53:47.754Z,10.53
2018-09-06T15:56:21.573Z,11.85
2018-09-06T15:58:55.975Z,13.07
2018-09-06T16:01:30.576Z,9.98
2018-09-06T16:04:04.421Z,10.40
2018-09-06T16:06:38.079Z,10.52
2018-09-06T16:09:11.904Z,12.60
2018-09-06T16:11:45.760Z,10.52
2018-09-06T16:14:19.603Z,12.27
2018-09-06T16:16:53.544Z,9.90
2018-09-06T16:19:27.124Z,13.45
2018-09-06T16:22:00.876Z,12.27
2018-09-06T16:27:34.695Z,10.20
2018-09-06T16:33:08.277Z,10.82
2018-09-06T16:35:42.135Z,24.05
2018-09-06T16:38:16.732Z,12.35
2018-09-06T16:40:50.871Z,14.15
2018-09-06T16:43:24.598Z,9.85
2018-09-06T16:45:58.464Z,7.82
2018-09-06T16:48:32.207Z,10.30
2018-09-06T16:51:06.787Z,7.72
2018-09-06T16:53:40.508Z,12.30
2018-09-06T16:56:14.405Z,10.88
2018-09-06T17:01:47.484Z,8.02
2018-09-06T17:04:21.305Z,8.20
2018-09-06T17:12:53.884Z,8.82
2018-09-06T17:15:27.645Z,9.85
2018-09-06T17:18:01.330Z,9.68
2018-09-06T17:20:35.909Z,8.75
2018-09-06T17:23:09.744Z,10.98
2018-09-06T17:25:43.504Z,10.23
2018-09-06T17:28:17.436Z,10.77
2018-09-06T17:30:51.166Z,15.50
2018-09-06T17:33:24.849Z,13.02
2018-09-06T17:35:58.520Z,14.38
2018-09-06T17:38:33.118Z,12.10
2018-09-06T17:41:06.801Z,11.98
2018-09-06T17:43:40.487Z,14.38
2018-09-06T17:46:14.950Z,13.20
2018-09-06T17:51:48.640Z,13.07
2018-09-06T17:54:22.403Z,12.48
2018-09-06T17:56:56.128Z,11.63
2018-09-06T18:02:30.061Z,12.18
2018-09-06T18:05:03.875Z,13.05
2018-09-06T18:07:37.720Z,11.93
2018-09-06T18:10:11.525Z,13.10
2018-09-06T18:15:44.309Z,15.73
2018-09-06T18:18:18.849Z,14.30
2018-09-06T18:20:53.370Z,13.50
2018-09-06T18:23:27.188Z,11.90
2018-09-06T18:26:00.948Z,15.48
2018-09-06T18:28:35.597Z,12.27
2018-09-06T18:40:09.164Z,13.10
2018-09-06T18:42:42.921Z,14.07
2018-09-06T18:45:40.359Z,13.40
2018-09-06T18:51:14.159Z,14.98
2018-09-06T18:53:47.940Z,16.12
2018-09-06T18:56:21.825Z,18.77
2018-09-06T18:58:56.367Z,13.75
2018-09-06T19:01:35.245Z,17.52
2018-09-06T19:04:09.714Z,17.00
2018-09-06T19:06:44.226Z,18.20
2018-09-06T19:12:17.695Z,17.87
2018-09-06T19:17:50.991Z,15.93
2018-09-06T19:20:24.642Z,16.70
2018-09-06T19:26:02.572Z,15.50
2018-09-06T19:28:37.274Z,16.77
2018-09-06T19:31:10.888Z,14.30
2018-09-06T19:33:44.628Z,14.80
2018-09-06T19:36:18.394Z,18.65
2018-09-06T19:41:51.730Z,16.55
2018-09-06T19:44:25.451Z,19.75
2018-09-06T19:49:59.012Z,21.45
2018-09-06T19:52:33.604Z,19.05
2018-09-06T19:55:08.284Z,19.77
2018-09-06T20:00:41.975Z,19.62
2018-09-06T20:03:15.715Z,18.87
2018-09-06T20:05:54.507Z,19.87
2018-09-06T20:08:28.189Z,22.05
2018-09-06T20:17:01.498Z,22.58
2018-09-06T20:25:34.668Z,22.48
2018-09-06T20:28:08.597Z,22.05
2018-09-06T20:30:42.286Z,20.92
2018-09-06T20:33:16.786Z,20.25
2018-09-06T20:35:51.224Z,19.87
2018-09-06T20:38:24.964Z,21.23
2018-09-06T20:40:58.761Z,21.83
2018-09-06T20:43:32.551Z,22.48
2018-09-06T20:46:06.292Z,20.70
2018-09-06T20:48:40.058Z,20.70
2018-09-06T20:51:14.778Z,22.10
2018-09-06T20:53:48.665Z,20.45
2018-09-06T20:56:22.542Z,21.45
2018-09-06T20:58:56.292Z,20.60
2018-09-06T21:01:30.005Z,18.05
2018-09-06T21:07:03.709Z,16.20
2018-09-06T21:09:37.433Z,18.05
2018-09-06T21:12:11.209Z,15.85
2018-09-06T21:14:49.802Z,15.07
2018-09-06T21:17:23.634Z,15.35
2018-09-06T21:19:57.433Z,15.55
2018-09-06T21:22:31.319Z,15.52
2018-09-06T21:28:05.352Z,16.10
2018-09-06T21:33:38.925Z,15.75
2018-09-06T21:36:13.572Z,15.45
2018-09-06T21:38:47.226Z,14.45
2018-09-06T21:44:20.244Z,13.93
2018-09-06T21:46:54.097Z,15.13
2018-09-06T21:49:32.797Z,13.48
2018-09-06T21:52:07.270Z,14.68
2018-09-06T21:54:41.813Z,14.50
2018-09-06T21:57:15.708Z,14.40
2018-09-06T21:59:49.408Z,16.17
2018-09-06T22:05:23.048Z,15.68
2018-09-06T22:10:56.632Z,16.05
2018-09-06T22:13:30.388Z,16.60
2018-09-06T22:16:04.184Z,15.48
2018-09-06T22:21:37.699Z,16.25
2018-09-06T22:27:11.044Z,15.75
2018-09-06T22:29:44.837Z,16.33
2018-09-06T22:32:18.588Z,15.20
2018-09-06T22:37:52.020Z,14.77
2018-09-06T22:40:26.608Z,14.98
2018-09-06T22:45:59.383Z,14.68
2018-09-06T22:48:48.000Z,14.90
2018-09-06T22:51:21.864Z,14.82
2018-09-06T22:59:55.769Z,11.85
2018-09-06T23:02:29.492Z,14.68
2018-09-06T23:05:03.256Z,14.05
2018-09-06T23:07:37.060Z,11.88
2018-09-06T23:16:09.897Z,12.45
2018-09-06T23:21:44.984Z,11.60
2018-09-06T23:24:18.777Z,11.07
2018-09-06T23:26:52.549Z,11.30
2018-09-06T23:32:26.168Z,11.35
2018-09-06T23:40:58.983Z,11.25
2018-09-06T23:43:32.746Z,12.05
2018-09-06T23:46:06.676Z,11.80
2018-09-06T23:48:40.496Z,13.00
2018-09-06T23:54:13.765Z,12.15
2018-09-06T23:56:47.654Z,10.13
